Panola, Illinois
Current Conditions -  °F | °C
As of 7:56 AM on Friday 28 Nov 2014 (Local Time) from KBMI Reporting Station
Few Clouds Few Clouds  
Wind Chill:   Ceiling: Unl
Heat Index: 20°   Visibility: 10mi
Dew Point: 15°   Wind: 13mph
Humidity: 81%   Direction: 150°SSE
Pressure: 30.25"   Gusts: NA
Location:  40.7564°N, 89.0023°W
Report Text: KBMI 281356Z 15011KT 10SM FEW110 M07/M09 A3025 RMK AO2 T10661094 SLP271
Loading
Personal Weather Stations






























Interactive Weather Map New forecast layout! Learn more

10-Day Weather Forecast

Advertisements
Track Severe Weather on mobile